createdAt,value
2022-12-18T00:02:19.276Z,16.05
2022-12-18T00:04:50.076Z,18.30
2022-12-18T00:07:23.108Z,19.92
2022-12-18T00:10:03.269Z,16.95
2022-12-18T00:12:33.498Z,18.80
2022-12-18T00:15:05.342Z,18.40
2022-12-18T00:17:33.292Z,18.42
2022-12-18T00:20:01.141Z,17.40
2022-12-18T00:22:29.090Z,18.27
2022-12-18T00:24:59.187Z,17.08
2022-12-18T00:27:50.268Z,19.55
2022-12-18T00:30:18.985Z,16.60
2022-12-18T00:33:08.350Z,18.42
2022-12-18T00:35:39.049Z,17.05
2022-12-18T00:38:23.524Z,17.40
2022-12-18T00:41:12.539Z,17.67
2022-12-18T00:43:41.083Z,16.80
2022-12-18T00:46:09.288Z,16.60
2022-12-18T00:48:53.890Z,17.27
2022-12-18T00:51:22.014Z,18.33
2022-12-18T00:53:51.815Z,18.20
2022-12-18T00:56:34.051Z,18.10
2022-12-18T00:59:10.927Z,18.67
2022-12-18T01:01:38.950Z,14.80
2022-12-18T01:04:07.250Z,18.23
2022-12-18T01:06:35.543Z,17.55
2022-12-18T01:09:03.809Z,19.90
2022-12-18T01:11:35.704Z,17.58
2022-12-18T01:14:04.063Z,14.75
2022-12-18T01:16:32.674Z,15.70
2022-12-18T01:19:11.920Z,17.42
2022-12-18T01:21:57.098Z,15.90
2022-12-18T01:24:30.162Z,15.95
2022-12-18T01:27:03.113Z,16.20
2022-12-18T01:29:31.169Z,17.05
2022-12-18T01:31:59.346Z,15.52
2022-12-18T01:34:27.522Z,16.58
2022-12-18T01:36:55.450Z,14.88
2022-12-18T01:39:23.399Z,16.65
2022-12-18T01:42:03.552Z,16.27
2022-12-18T01:45:07.792Z,14.82
2022-12-18T01:47:47.759Z,15.35
2022-12-18T01:50:19.428Z,17.48
2022-12-18T01:52:56.197Z,14.00
2022-12-18T01:55:27.883Z,18.13
2022-12-18T01:58:00.471Z,16.73
2022-12-18T02:03:13.871Z,16.48
2022-12-18T02:05:57.080Z,16.88
2022-12-18T02:08:33.275Z,16.25
2022-12-18T02:11:09.360Z,16.63
2022-12-18T02:13:44.482Z,19.08
2022-12-18T02:16:24.159Z,17.60
2022-12-18T02:18:58.737Z,17.08
2022-12-18T02:21:36.274Z,14.25
2022-12-18T02:24:18.372Z,18.42
2022-12-18T02:26:51.185Z,18.10
2022-12-18T02:29:23.409Z,16.05
2022-12-18T02:34:46.210Z,14.75
2022-12-18T02:37:30.438Z,15.18
2022-12-18T02:40:09.746Z,16.58
2022-12-18T02:42:41.717Z,18.35
2022-12-18T02:45:10.417Z,16.48
2022-12-18T02:47:47.531Z,11.48
2022-12-18T02:50:29.149Z,15.10
2022-12-18T02:53:05.418Z,18.17
2022-12-18T02:55:45.854Z,16.80
2022-12-18T02:58:23.902Z,15.05
2022-12-18T03:00:56.969Z,16.58
2022-12-18T03:03:37.910Z,16.08
2022-12-18T03:06:11.051Z,17.65
2022-12-18T03:08:42.269Z,17.88
2022-12-18T03:11:13.059Z,13.47
2022-12-18T03:13:48.326Z,17.17
2022-12-18T03:16:23.966Z,20.50
2022-12-18T03:18:56.910Z,16.27
2022-12-18T03:21:30.244Z,17.85
2022-12-18T03:23:58.885Z,15.05
2022-12-18T03:26:29.956Z,16.10
2022-12-18T03:29:04.936Z,15.57
2022-12-18T03:31:37.448Z,16.73
2022-12-18T03:34:21.617Z,18.17
2022-12-18T03:36:49.767Z,16.60
2022-12-18T03:39:18.018Z,17.98
2022-12-18T03:41:53.102Z,17.33
2022-12-18T03:44:28.989Z,17.55
2022-12-18T03:47:05.717Z,17.65
2022-12-18T03:49:39.487Z,18.00
2022-12-18T03:52:12.251Z,17.80
2022-12-18T03:54:42.864Z,16.85
2022-12-18T03:57:17.319Z,18.23
2022-12-18T03:59:49.495Z,17.58
2022-12-18T04:02:19.437Z,17.40
2022-12-18T04:04:52.504Z,16.58
2022-12-18T04:07:21.795Z,18.27
2022-12-18T04:09:52.379Z,16.95
2022-12-18T04:12:23.557Z,18.35
2022-12-18T04:14:52.912Z,17.05
2022-12-18T04:17:20.989Z,16.77
2022-12-18T04:19:49.083Z,19.95
2022-12-18T04:22:17.442Z,19.25
2022-12-18T04:24:45.402Z,19.20
2022-12-18T04:27:14.968Z,16.83
2022-12-18T04:29:43.040Z,18.63
2022-12-18T04:32:12.631Z,19.55
2022-12-18T04:34:40.628Z,19.48
2022-12-18T04:37:09.094Z,19.52
2022-12-18T04:39:37.159Z,20.67
2022-12-18T04:42:05.251Z,16.77
2022-12-18T04:44:38.364Z,19.13
2022-12-18T04:47:06.828Z,19.50
2022-12-18T04:49:36.273Z,19.92
2022-12-18T04:52:04.254Z,17.55
2022-12-18T04:54:32.138Z,21.35
2022-12-18T04:56:59.965Z,21.48
2022-12-18T04:59:28.176Z,18.35
2022-12-18T05:02:03.794Z,16.92
2022-12-18T05:04:31.909Z,18.58
2022-12-18T05:07:08.808Z,16.92
2022-12-18T05:09:36.798Z,18.92
2022-12-18T05:12:07.336Z,18.25
2022-12-18T05:14:35.383Z,19.63
2022-12-18T05:17:03.430Z,18.13
2022-12-18T05:19:31.275Z,20.85
2022-12-18T05:21:59.602Z,17.95
2022-12-18T05:24:29.053Z,17.05
2022-12-18T05:26:57.035Z,18.90
2022-12-18T05:29:27.337Z,18.38
2022-12-18T05:31:58.177Z,16.73
2022-12-18T05:34:34.443Z,14.40
2022-12-18T05:37:04.860Z,18.00
2022-12-18T05:39:39.735Z,17.13
2022-12-18T05:42:07.976Z,16.52
2022-12-18T05:44:35.979Z,20.38
2022-12-18T05:47:03.932Z,18.58
2022-12-18T05:49:31.843Z,16.60
2022-12-18T05:51:59.692Z,19.02
2022-12-18T05:54:29.443Z,18.08
2022-12-18T05:56:58.933Z,19.58
2022-12-18T05:59:29.880Z,15.80
2022-12-18T06:02:04.464Z,15.30
2022-12-18T06:04:41.510Z,17.20
2022-12-18T06:07:14.830Z,16.95
2022-12-18T06:09:42.856Z,18.40
2022-12-18T06:12:12.754Z,17.20
2022-12-18T06:14:40.709Z,18.95
2022-12-18T06:17:08.712Z,19.08
2022-12-18T06:19:36.843Z,17.85
2022-12-18T06:22:04.952Z,17.50
2022-12-18T06:24:34.107Z,17.70
2022-12-18T06:27:02.093Z,19.17
2022-12-18T06:29:31.437Z,20.20
2022-12-18T06:31:59.467Z,18.65
2022-12-18T06:34:27.717Z,20.10
2022-12-18T06:36:55.736Z,19.55
2022-12-18T06:39:23.796Z,18.60
2022-12-18T06:41:51.806Z,18.77
2022-12-18T06:44:21.478Z,18.33
2022-12-18T06:46:50.793Z,19.52
2022-12-18T06:49:18.768Z,18.08
2022-12-18T06:51:46.745Z,18.73
2022-12-18T06:54:15.418Z,20.92
2022-12-18T06:56:46.785Z,17.90
2022-12-18T06:59:15.429Z,18.23
2022-12-18T07:01:43.555Z,19.42
2022-12-18T07:04:13.048Z,18.35
2022-12-18T07:06:41.183Z,17.23
2022-12-18T07:09:10.699Z,15.80
2022-12-18T07:11:38.610Z,19.30
2022-12-18T07:14:06.721Z,19.23
2022-12-18T07:16:37.094Z,19.05
2022-12-18T07:19:07.528Z,16.15
2022-12-18T07:21:38.962Z,19.00
2022-12-18T07:24:09.754Z,22.17
2022-12-18T07:26:37.634Z,17.80
2022-12-18T07:29:05.552Z,21.02
2022-12-18T07:31:35.678Z,18.58
2022-12-18T07:34:04.941Z,17.95
2022-12-18T07:36:34.624Z,17.70
2022-12-18T07:39:03.859Z,19.30
2022-12-18T07:41:31.743Z,18.92
2022-12-18T07:43:59.658Z,18.95
2022-12-18T07:46:27.527Z,20.30
2022-12-18T07:48:55.540Z,19.35
2022-12-18T07:51:24.358Z,18.48
2022-12-18T07:53:53.075Z,15.43
2022-12-18T07:56:31.389Z,16.30
2022-12-18T07:59:00.406Z,17.15
2022-12-18T08:01:28.855Z,17.25
2022-12-18T08:03:56.923Z,15.30
2022-12-18T08:06:25.201Z,18.83
2022-12-18T08:08:54.540Z,19.63
2022-12-18T08:11:25.167Z,20.50
2022-12-18T08:13:53.038Z,18.63
2022-12-18T08:16:24.566Z,15.82
2022-12-18T08:18:54.221Z,17.63
2022-12-18T08:21:25.373Z,19.60
2022-12-18T08:23:54.820Z,19.42
2022-12-18T08:26:24.648Z,17.70
2022-12-18T08:28:59.404Z,17.55
2022-12-18T08:31:28.948Z,19.88
2022-12-18T08:33:57.521Z,18.55
2022-12-18T08:36:38.848Z,18.70
2022-12-18T08:39:11.236Z,17.52
2022-12-18T08:41:47.206Z,17.42
2022-12-18T08:44:32.959Z,18.25
2022-12-18T08:47:00.835Z,16.73
2022-12-18T08:49:28.670Z,17.33
2022-12-18T08:51:58.042Z,17.40
2022-12-18T08:57:52.215Z,18.75
2022-12-18T09:00:20.930Z,17.63
2022-12-18T09:02:49.397Z,17.52
2022-12-18T09:05:17.861Z,23.08
2022-12-18T09:07:45.824Z,20.88
2022-12-18T09:10:15.564Z,18.13
2022-12-18T09:12:43.402Z,19.00
2022-12-18T09:15:12.980Z,20.65
2022-12-18T09:17:40.967Z,20.75
2022-12-18T09:20:10.077Z,19.77
2022-12-18T09:22:37.911Z,18.27
2022-12-18T09:25:08.685Z,19.13
2022-12-18T09:27:38.568Z,19.92
2022-12-18T09:30:10.144Z,21.60
2022-12-18T09:32:39.483Z,15.55
2022-12-18T09:35:07.867Z,20.60
2022-12-18T09:37:35.799Z,22.30
2022-12-18T09:40:03.869Z,20.30
2022-12-18T09:42:32.127Z,20.35
2022-12-18T09:45:01.382Z,21.33
2022-12-18T09:47:38.167Z,22.10
2022-12-18T09:50:19.398Z,22.67
2022-12-18T09:52:50.192Z,25.75
2022-12-18T09:55:26.285Z,22.17
2022-12-18T09:57:59.023Z,23.05
2022-12-18T10:00:27.718Z,22.80
2022-12-18T10:03:02.914Z,24.48
2022-12-18T10:05:43.672Z,21.65
2022-12-18T10:08:19.768Z,22.02
2022-12-18T10:13:41.261Z,19.73
2022-12-18T10:16:17.566Z,23.52
2022-12-18T10:19:04.907Z,24.30
2022-12-18T10:21:41.828Z,20.58
2022-12-18T10:24:23.190Z,20.45
2022-12-18T10:26:51.158Z,22.70
2022-12-18T10:29:19.587Z,23.83
2022-12-18T10:31:47.534Z,20.25
2022-12-18T10:34:17.300Z,23.65
2022-12-18T10:36:50.237Z,20.48
2022-12-18T10:39:22.768Z,24.38
2022-12-18T10:41:53.376Z,22.42
2022-12-18T10:44:23.088Z,19.98
2022-12-18T10:46:56.695Z,20.33
2022-12-18T10:49:27.302Z,20.10
2022-12-18T10:52:09.510Z,24.02
2022-12-18T10:54:38.870Z,26.17
2022-12-18T10:57:36.960Z,21.42
2022-12-18T11:00:28.577Z,22.48
2022-12-18T11:02:57.256Z,20.90
2022-12-18T11:05:32.700Z,22.38
2022-12-18T11:08:04.830Z,19.90
2022-12-18T11:10:37.670Z,21.77
2022-12-18T11:13:18.238Z,22.98
2022-12-18T11:15:50.077Z,22.50
2022-12-18T11:18:25.556Z,16.70
2022-12-18T11:20:58.662Z,22.05
2022-12-18T11:23:29.194Z,22.88
2022-12-18T11:26:02.612Z,22.65
2022-12-18T11:28:41.853Z,21.10
2022-12-18T11:31:29.848Z,20.33
2022-12-18T11:34:27.913Z,20.98
2022-12-18T11:36:56.816Z,19.30
2022-12-18T11:39:33.794Z,23.25
2022-12-18T11:42:13.451Z,22.65
2022-12-18T11:44:48.172Z,21.90
2022-12-18T11:47:33.665Z,24.10
2022-12-18T11:50:03.756Z,24.63
2022-12-18T11:52:40.926Z,21.45
2022-12-18T11:55:17.986Z,21.50
2022-12-18T11:57:54.143Z,22.38
2022-12-18T12:00:23.322Z,21.67
2022-12-18T12:03:19.221Z,20.23
2022-12-18T12:05:59.456Z,20.42
2022-12-18T12:08:38.658Z,22.38
2022-12-18T12:11:24.847Z,22.75
2022-12-18T12:14:11.763Z,21.05
2022-12-18T12:16:46.983Z,21.55
2022-12-18T12:19:29.784Z,22.40
2022-12-18T12:22:04.974Z,22.35
2022-12-18T12:24:41.966Z,21.58
2022-12-18T12:27:22.635Z,21.98
2022-12-18T12:30:01.925Z,22.85
2022-12-18T12:32:44.451Z,22.55
2022-12-18T12:35:24.532Z,22.15
2022-12-18T12:38:00.699Z,16.55
2022-12-18T12:43:29.670Z,22.13
2022-12-18T12:46:02.222Z,22.58
2022-12-18T12:48:38.799Z,21.95
2022-12-18T12:51:15.734Z,23.15
2022-12-18T12:53:46.505Z,26.67
2022-12-18T12:56:25.891Z,26.15
2022-12-18T12:59:08.773Z,25.95
2022-12-18T13:01:43.241Z,24.83
2022-12-18T13:04:21.532Z,30.27
2022-12-18T13:06:59.327Z,27.73
2022-12-18T13:09:31.482Z,26.60
2022-12-18T13:12:23.092Z,28.70
2022-12-18T13:14:54.257Z,29.70
2022-12-18T13:17:35.530Z,30.80
2022-12-18T13:20:12.707Z,19.93
2022-12-18T13:22:45.300Z,26.65
2022-12-18T13:25:37.793Z,25.90
2022-12-18T13:31:01.370Z,25.33
2022-12-18T13:36:41.391Z,26.73
2022-12-18T13:39:30.024Z,25.20
2022-12-18T13:42:56.385Z,24.60
2022-12-18T13:45:48.033Z,25.88
2022-12-18T13:48:26.009Z,26.98
2022-12-18T13:51:00.964Z,25.80
2022-12-18T13:53:32.569Z,24.67
2022-12-18T13:56:03.651Z,19.05
2022-12-18T13:58:34.315Z,23.92
2022-12-18T14:01:05.602Z,24.70
2022-12-18T14:03:38.000Z,17.30
2022-12-18T14:06:09.926Z,25.60
2022-12-18T14:08:41.482Z,28.45
2022-12-18T14:11:19.264Z,20.38
2022-12-18T14:13:51.389Z,25.00
2022-12-18T14:16:20.417Z,27.33
2022-12-18T14:18:56.341Z,26.98
2022-12-18T14:21:31.707Z,27.23
2022-12-18T14:24:18.598Z,27.55
2022-12-18T14:26:54.926Z,27.48
2022-12-18T14:29:26.699Z,26.10
2022-12-18T14:32:17.542Z,28.95
2022-12-18T14:34:50.550Z,27.23
2022-12-18T14:39:59.125Z,27.33
2022-12-18T14:42:29.283Z,27.00
2022-12-18T14:45:41.105Z,26.40
2022-12-18T14:48:16.304Z,24.17
2022-12-18T14:51:00.465Z,26.63
2022-12-18T14:53:37.134Z,25.70
2022-12-18T14:56:15.439Z,25.48
2022-12-18T14:58:48.643Z,25.77
2022-12-18T15:01:29.255Z,25.60
2022-12-18T15:03:59.503Z,25.92
2022-12-18T15:06:40.791Z,28.55
2022-12-18T15:09:24.604Z,26.33
2022-12-18T15:12:02.071Z,25.23
2022-12-18T15:14:36.909Z,25.20
2022-12-18T15:17:09.420Z,26.23
2022-12-18T15:19:42.424Z,26.08
2022-12-18T15:22:30.543Z,29.25
2022-12-18T15:25:00.134Z,25.88
2022-12-18T15:27:31.773Z,27.23
2022-12-18T15:30:06.954Z,30.00
2022-12-18T15:32:35.256Z,26.58
2022-12-18T15:35:16.819Z,27.23
2022-12-18T15:37:46.909Z,27.35
2022-12-18T15:40:17.351Z,26.88
2022-12-18T15:43:03.518Z,26.40
2022-12-18T15:45:31.493Z,23.98
2022-12-18T15:48:08.582Z,26.98
2022-12-18T15:50:36.827Z,24.60
2022-12-18T15:53:06.248Z,26.48
2022-12-18T15:55:57.815Z,26.70
2022-12-18T15:58:28.989Z,29.30
2022-12-18T16:01:00.262Z,25.33
2022-12-18T16:03:31.002Z,29.27
2022-12-18T16:06:02.883Z,33.30
2022-12-18T16:08:34.291Z,26.98
2022-12-18T16:11:02.836Z,27.80
2022-12-18T16:13:31.034Z,28.48
2022-12-18T16:16:00.784Z,29.40
2022-12-18T16:18:30.107Z,27.10
2022-12-18T16:20:58.160Z,27.17
2022-12-18T16:23:26.169Z,26.02
2022-12-18T16:25:55.692Z,25.90
2022-12-18T16:28:23.778Z,28.52
2022-12-18T16:30:51.806Z,25.40
2022-12-18T16:33:22.242Z,28.85
2022-12-18T16:35:54.054Z,29.33
2022-12-18T16:38:22.161Z,29.50
2022-12-18T16:41:05.909Z,26.80
2022-12-18T16:43:35.317Z,29.95
2022-12-18T16:46:03.274Z,27.77
2022-12-18T16:48:31.221Z,29.13
2022-12-18T16:51:03.569Z,29.02
2022-12-18T16:53:31.711Z,30.55
2022-12-18T16:56:01.184Z,28.70
2022-12-18T16:58:29.147Z,30.98
2022-12-18T17:00:58.521Z,28.45
2022-12-18T17:03:26.670Z,28.50
2022-12-18T17:05:54.633Z,31.52
2022-12-18T17:08:25.096Z,29.08
2022-12-18T17:10:53.054Z,28.27
2022-12-18T17:13:25.535Z,23.52
2022-12-18T17:15:54.086Z,26.20
2022-12-18T17:18:23.570Z,25.35
2022-12-18T17:20:51.562Z,27.13
2022-12-18T17:23:19.610Z,26.02
2022-12-18T17:25:47.520Z,25.75
2022-12-18T17:28:18.232Z,26.75
2022-12-18T17:30:46.290Z,28.60
2022-12-18T17:33:14.273Z,26.50
2022-12-18T17:35:44.891Z,24.00
2022-12-18T17:38:16.772Z,28.27
2022-12-18T17:40:46.585Z,26.95
2022-12-18T17:43:14.758Z,29.90
2022-12-18T17:45:43.763Z,31.75
2022-12-18T17:48:12.136Z,29.15
2022-12-18T17:50:41.134Z,34.55
2022-12-18T17:53:10.511Z,39.30
2022-12-18T17:55:41.258Z,31.75
2022-12-18T17:58:09.225Z,35.22
2022-12-18T18:00:39.770Z,30.85
2022-12-18T18:03:08.977Z,34.83
2022-12-18T18:05:42.922Z,32.13
2022-12-18T18:08:12.357Z,28.65
2022-12-18T18:10:41.129Z,30.45
2022-12-18T18:13:40.792Z,29.65
2022-12-18T18:16:12.601Z,20.67
2022-12-18T18:18:40.753Z,28.38
2022-12-18T18:21:09.856Z,29.48
2022-12-18T18:23:41.680Z,29.20
2022-12-18T18:26:11.647Z,26.40
2022-12-18T18:28:39.608Z,26.27
2022-12-18T18:31:11.393Z,26.05
2022-12-18T18:33:39.852Z,27.33
2022-12-18T18:36:14.315Z,28.15
2022-12-18T18:38:48.186Z,28.55
2022-12-18T18:41:17.296Z,26.90
2022-12-18T18:43:45.505Z,28.48
2022-12-18T18:46:15.536Z,27.27
2022-12-18T18:48:43.900Z,28.73
2022-12-18T18:51:21.375Z,25.60
2022-12-18T18:53:54.966Z,28.92
2022-12-18T18:56:56.576Z,28.23
2022-12-18T18:59:16.262Z,25.67
2022-12-18T19:01:45.095Z,28.33
2022-12-18T19:04:16.466Z,33.83
2022-12-18T19:06:46.669Z,37.63
2022-12-18T19:09:16.641Z,31.88
2022-12-18T19:12:02.257Z,29.98
2022-12-18T19:14:30.416Z,31.65
2022-12-18T19:16:58.700Z,32.00
2022-12-18T19:19:28.310Z,33.60
2022-12-18T19:21:56.674Z,32.17
2022-12-18T19:24:26.955Z,32.05
2022-12-18T19:26:55.382Z,29.70
2022-12-18T19:29:26.283Z,28.00
2022-12-18T19:31:54.338Z,28.92
2022-12-18T19:34:22.487Z,27.77
2022-12-18T19:36:53.895Z,29.60
2022-12-18T19:39:27.651Z,28.88
2022-12-18T19:41:55.813Z,32.35
2022-12-18T19:44:23.993Z,26.88
2022-12-18T19:46:52.806Z,27.02
2022-12-18T19:49:24.052Z,29.15
2022-12-18T19:51:52.417Z,19.57
2022-12-18T19:54:20.779Z,27.85
2022-12-18T19:56:53.162Z,26.30
2022-12-18T19:59:21.324Z,29.17
2022-12-18T20:01:50.463Z,25.88
2022-12-18T20:04:18.720Z,25.67
2022-12-18T20:06:49.097Z,27.70
2022-12-18T20:09:18.199Z,26.65
2022-12-18T20:11:49.822Z,28.60
2022-12-18T20:14:23.392Z,28.02
2022-12-18T20:16:54.368Z,29.55
2022-12-18T20:19:24.654Z,28.88
2022-12-18T20:21:53.122Z,27.48
2022-12-18T20:24:21.500Z,27.60
2022-12-18T20:26:50.073Z,29.67
2022-12-18T20:29:19.647Z,28.08
2022-12-18T20:31:47.845Z,25.90
2022-12-18T20:34:18.444Z,28.50
2022-12-18T20:36:47.682Z,20.75
2022-12-18T20:39:16.377Z,26.48
2022-12-18T20:41:45.685Z,27.33
2022-12-18T20:44:26.249Z,26.13
2022-12-18T20:47:07.760Z,25.77
2022-12-18T20:49:37.566Z,27.63
2022-12-18T20:52:10.617Z,25.98
2022-12-18T20:54:38.696Z,24.38
2022-12-18T20:57:06.752Z,25.35
2022-12-18T20:59:36.525Z,26.55
2022-12-18T21:02:06.127Z,24.65
2022-12-18T21:04:35.659Z,26.27
2022-12-18T21:07:03.681Z,25.25
2022-12-18T21:09:34.235Z,26.20
2022-12-18T21:12:25.459Z,25.77
2022-12-18T21:14:57.290Z,23.90
2022-12-18T21:17:27.043Z,27.08
2022-12-18T21:19:56.597Z,27.40
2022-12-18T21:22:25.204Z,24.75
2022-12-18T21:24:56.065Z,26.25
2022-12-18T21:27:29.824Z,26.90
2022-12-18T21:29:58.113Z,25.67
2022-12-18T21:32:31.955Z,26.05
2022-12-18T21:35:01.839Z,26.00
2022-12-18T21:37:29.832Z,24.40
2022-12-18T21:39:57.802Z,26.23
2022-12-18T21:42:43.226Z,24.20
2022-12-18T21:45:12.140Z,23.27
2022-12-18T21:47:41.556Z,25.65
2022-12-18T21:50:10.177Z,24.08
2022-12-18T21:52:38.234Z,22.63
2022-12-18T21:55:10.160Z,23.50
2022-12-18T21:57:41.350Z,22.45
2022-12-18T22:00:18.281Z,25.80
2022-12-18T22:03:12.404Z,22.52
2022-12-18T22:05:37.161Z,23.42
2022-12-18T22:08:06.966Z,23.05
2022-12-18T22:10:35.469Z,24.88
2022-12-18T22:13:03.806Z,23.27
2022-12-18T22:15:31.846Z,22.67
2022-12-18T22:18:01.241Z,23.20
2022-12-18T22:20:30.215Z,22.23
2022-12-18T22:22:58.546Z,21.05
2022-12-18T22:25:26.889Z,22.33
2022-12-18T22:28:12.219Z,21.73
2022-12-18T22:30:40.430Z,20.92
2022-12-18T22:33:09.708Z,23.23
2022-12-18T22:35:39.698Z,20.35
2022-12-18T22:38:07.899Z,20.38
2022-12-18T22:40:35.804Z,21.10
2022-12-18T22:43:04.227Z,21.85
2022-12-18T22:45:32.352Z,21.48
2022-12-18T22:48:03.134Z,20.58
2022-12-18T22:50:33.856Z,19.25
2022-12-18T22:53:01.920Z,19.02
2022-12-18T22:55:31.541Z,19.90
2022-12-18T22:57:59.464Z,17.55
2022-12-18T23:00:27.331Z,17.63
2022-12-18T23:03:00.423Z,19.50
2022-12-18T23:05:30.465Z,18.80
2022-12-18T23:07:59.878Z,18.63
2022-12-18T23:10:28.958Z,18.58
2022-12-18T23:12:57.177Z,20.90
2022-12-18T23:15:28.185Z,20.00
2022-12-18T23:17:57.709Z,14.68
2022-12-18T23:20:25.937Z,20.67
2022-12-18T23:22:54.138Z,20.77
2022-12-18T23:25:23.521Z,20.02
2022-12-18T23:27:51.617Z,20.35
2022-12-18T23:30:19.780Z,21.17
2022-12-18T23:32:48.265Z,20.17
2022-12-18T23:35:16.268Z,19.27
2022-12-18T23:38:00.533Z,18.95
2022-12-18T23:40:30.875Z,19.58
2022-12-18T23:43:00.216Z,22.25
2022-12-18T23:45:28.311Z,22.30
2022-12-18T23:47:56.381Z,22.20
2022-12-18T23:50:29.679Z,21.88
2022-12-18T23:53:04.979Z,22.50
2022-12-18T23:55:38.529Z,22.85
2022-12-18T23:58:06.539Z,21.92
